CEB753 RPLL-VVTS
Flight info
| Callsign | CEB753 |
|---|---|
| Flight time | N/A |
| Altitude | 36000 |
| Route | BETEL2R BETEL M765 PANDI/K0850F360 N500 PTH DALAP2G |
| Aircraft | A339/H-SADE1E2E3GHIJ3J5M1P2RWXY/LB2D1 |
Departure
| Time | N/A |
|---|---|
| Airport | Ninoy Aquino International Airport (RPLL) |
Arrival
| Time | 2026-05-06 06:07 |
|---|---|
| Airport | Tan Son Nhat International Airport (VVTS) |
| Time | Latitude | Longitude | Altitude | Speed | Heading |
|---|---|---|---|---|---|
| 2026-05-06 05:18 | 11.26419 | 110.77431 | 35867 ft | 462 kts | 263° |
| 2026-05-06 05:18 | 11.26154 | 110.75298 | 35869 ft | 462 kts | 263° |
| 2026-05-06 05:19 | 11.25206 | 110.67702 | 35867 ft | 462 kts | 263° |
| 2026-05-06 05:19 | 11.24396 | 110.61234 | 35864 ft | 462 kts | 263° |
| 2026-05-06 05:20 | 11.23586 | 110.54774 | 35864 ft | 462 kts | 263° |
| 2026-05-06 05:20 | 11.22771 | 110.48288 | 35863 ft | 463 kts | 263° |
| 2026-05-06 05:21 | 11.21954 | 110.41791 | 35862 ft | 463 kts | 263° |
| 2026-05-06 05:21 | 11.21136 | 110.35295 | 35861 ft | 462 kts | 263° |
| 2026-05-06 05:22 | 11.20320 | 110.28837 | 35862 ft | 463 kts | 263° |
| 2026-05-06 05:22 | 11.19498 | 110.22336 | 35861 ft | 463 kts | 263° |
| 2026-05-06 05:23 | 11.18814 | 110.16939 | 35859 ft | 463 kts | 263° |
| 2026-05-06 05:23 | 11.17441 | 110.06117 | 35859 ft | 463 kts | 263° |
| 2026-05-06 05:24 | 11.16615 | 109.99624 | 35858 ft | 463 kts | 263° |
| 2026-05-06 05:24 | 11.15789 | 109.93149 | 35862 ft | 463 kts | 263° |
| 2026-05-06 05:25 | 11.14961 | 109.86658 | 35862 ft | 463 kts | 263° |
| 2026-05-06 05:25 | 11.14272 | 109.81264 | 35860 ft | 463 kts | 263° |
| 2026-05-06 05:26 | 11.13305 | 109.73721 | 35862 ft | 463 kts | 263° |
| 2026-05-06 05:26 | 11.12468 | 109.67200 | 35860 ft | 463 kts | 263° |
| 2026-05-06 05:27 | 11.11632 | 109.60701 | 35862 ft | 464 kts | 263° |
| 2026-05-06 05:27 | 11.10798 | 109.54219 | 35860 ft | 464 kts | 263° |
| 2026-05-06 05:28 | 11.10010 | 109.47713 | 35862 ft | 464 kts | 263° |
| 2026-05-06 05:28 | 11.09233 | 109.41183 | 35860 ft | 464 kts | 263° |
| 2026-05-06 05:29 | 11.08458 | 109.34724 | 35852 ft | 463 kts | 263° |
| 2026-05-06 05:29 | 11.07672 | 109.28200 | 35849 ft | 463 kts | 263° |
| 2026-05-06 05:30 | 11.06883 | 109.21675 | 35848 ft | 463 kts | 263° |
| 2026-05-06 05:30 | 11.06104 | 109.15225 | 35846 ft | 463 kts | 263° |
| 2026-05-06 05:31 | 11.05315 | 109.08710 | 35844 ft | 462 kts | 263° |
| 2026-05-06 05:31 | 11.04532 | 109.02276 | 35843 ft | 462 kts | 263° |
| 2026-05-06 05:32 | 11.03742 | 108.95790 | 35846 ft | 462 kts | 263° |
| 2026-05-06 05:32 | 11.02952 | 108.89328 | 35841 ft | 462 kts | 263° |
| 2026-05-06 05:33 | 11.02157 | 108.82822 | 35839 ft | 462 kts | 263° |
| 2026-05-06 05:33 | 11.01366 | 108.76357 | 35837 ft | 462 kts | 263° |
| 2026-05-06 05:34 | 11.00572 | 108.69872 | 35836 ft | 463 kts | 263° |
| 2026-05-06 05:34 | 10.99773 | 108.63376 | 35837 ft | 463 kts | 263° |
| 2026-05-06 05:35 | 10.99105 | 108.57958 | 35839 ft | 463 kts | 263° |
| 2026-05-06 05:35 | 10.98175 | 108.50426 | 35843 ft | 463 kts | 263° |
| 2026-05-06 05:36 | 10.97374 | 108.43939 | 35850 ft | 463 kts | 263° |
| 2026-05-06 05:36 | 10.96569 | 108.37444 | 35858 ft | 463 kts | 263° |
| 2026-05-06 05:37 | 10.95762 | 108.30930 | 35864 ft | 463 kts | 263° |
| 2026-05-06 05:37 | 10.95637 | 108.29919 | 29488 ft | 463 kts | 263° |
| 2026-05-06 05:37 | 10.95255 | 108.26698 | 30167 ft | 455 kts | 262° |
| 2026-05-06 05:38 | 10.94860 | 108.23544 | 30747 ft | 445 kts | 262° |
| 2026-05-06 05:38 | 10.94464 | 108.20422 | 30567 ft | 443 kts | 262° |
| 2026-05-06 05:38 | 10.94068 | 108.17287 | 29791 ft | 450 kts | 262° |
| 2026-05-06 05:38 | 10.93674 | 108.14136 | 28872 ft | 459 kts | 262° |
| 2026-05-06 05:39 | 10.93269 | 108.10890 | 28006 ft | 465 kts | 262° |
| 2026-05-06 05:39 | 10.92861 | 108.07673 | 27412 ft | 465 kts | 261° |
| 2026-05-06 05:39 | 10.92328 | 108.04426 | 26936 ft | 461 kts | 259° |
| 2026-05-06 05:39 | 10.91766 | 108.01241 | 26480 ft | 457 kts | 259° |
| 2026-05-06 05:40 | 10.91199 | 107.98072 | 25934 ft | 456 kts | 259° |
| 2026-05-06 05:40 | 10.90629 | 107.94893 | 25467 ft | 453 kts | 259° |
| 2026-05-06 05:40 | 10.90076 | 107.91807 | 25062 ft | 448 kts | 259° |
| 2026-05-06 05:40 | 10.89731 | 107.89874 | 24807 ft | 446 kts | 259° |
| 2026-05-06 05:41 | 10.89001 | 107.85783 | 24277 ft | 440 kts | 259° |
| 2026-05-06 05:41 | 10.88459 | 107.82748 | 23881 ft | 436 kts | 259° |
| 2026-05-06 05:41 | 10.87926 | 107.79760 | 23490 ft | 432 kts | 259° |
| 2026-05-06 05:41 | 10.87391 | 107.76762 | 23090 ft | 428 kts | 259° |
| 2026-05-06 05:42 | 10.86860 | 107.73790 | 22689 ft | 425 kts | 259° |
| 2026-05-06 05:42 | 10.86333 | 107.70842 | 22298 ft | 422 kts | 259° |
| 2026-05-06 05:42 | 10.85983 | 107.68881 | 22045 ft | 420 kts | 259° |
| 2026-05-06 05:42 | 10.85297 | 107.65050 | 21560 ft | 415 kts | 259° |
| 2026-05-06 05:43 | 10.84782 | 107.62174 | 21202 ft | 412 kts | 259° |
| 2026-05-06 05:43 | 10.84271 | 107.59324 | 20847 ft | 408 kts | 259° |
| 2026-05-06 05:43 | 10.83764 | 107.56496 | 20481 ft | 405 kts | 259° |
| 2026-05-06 05:43 | 10.83259 | 107.53677 | 20119 ft | 402 kts | 259° |
| 2026-05-06 05:44 | 10.82922 | 107.51801 | 19882 ft | 400 kts | 259° |
| 2026-05-06 05:44 | 10.82433 | 107.49070 | 19514 ft | 398 kts | 259° |
| 2026-05-06 05:44 | 10.81773 | 107.45396 | 19022 ft | 394 kts | 260° |
| 2026-05-06 05:44 | 10.81282 | 107.42664 | 18662 ft | 392 kts | 260° |
| 2026-05-06 05:45 | 10.80794 | 107.39945 | 18295 ft | 389 kts | 260° |
| 2026-05-06 05:45 | 10.80309 | 107.37246 | 17964 ft | 386 kts | 260° |
| 2026-05-06 05:45 | 10.79832 | 107.34591 | 17731 ft | 380 kts | 259° |
| 2026-05-06 05:45 | 10.79356 | 107.31941 | 17280 ft | 380 kts | 260° |
| 2026-05-06 05:46 | 10.78882 | 107.29309 | 16890 ft | 379 kts | 260° |
| 2026-05-06 05:46 | 10.78409 | 107.26685 | 16518 ft | 377 kts | 260° |
| 2026-05-06 05:46 | 10.77942 | 107.24100 | 16158 ft | 374 kts | 260° |
| 2026-05-06 05:46 | 10.77472 | 107.21490 | 15794 ft | 372 kts | 260° |
| 2026-05-06 05:47 | 10.77043 | 107.18911 | 15439 ft | 370 kts | 262° |
| 2026-05-06 05:47 | 10.76687 | 107.16318 | 15073 ft | 368 kts | 263° |
| 2026-05-06 05:47 | 10.76350 | 107.13780 | 14695 ft | 366 kts | 263° |
| 2026-05-06 05:47 | 10.76011 | 107.11217 | 14331 ft | 364 kts | 263° |
| 2026-05-06 05:48 | 10.75675 | 107.08690 | 13992 ft | 362 kts | 263° |
| 2026-05-06 05:48 | 10.75337 | 107.06150 | 13639 ft | 360 kts | 263° |
| 2026-05-06 05:48 | 10.75000 | 107.03629 | 13281 ft | 359 kts | 263° |
| 2026-05-06 05:48 | 10.74663 | 107.01116 | 12915 ft | 357 kts | 263° |
| 2026-05-06 05:49 | 10.74442 | 106.99477 | 12685 ft | 355 kts | 263° |
| 2026-05-06 05:49 | 10.73999 | 106.96184 | 12222 ft | 353 kts | 263° |
| 2026-05-06 05:49 | 10.73663 | 106.93690 | 11876 ft | 351 kts | 263° |
| 2026-05-06 05:49 | 10.73337 | 106.91266 | 11542 ft | 349 kts | 262° |
| 2026-05-06 05:50 | 10.73007 | 106.88820 | 11201 ft | 348 kts | 263° |
| 2026-05-06 05:50 | 10.72681 | 106.86399 | 10895 ft | 345 kts | 262° |
| 2026-05-06 05:50 | 10.72361 | 106.84028 | 10815 ft | 333 kts | 262° |
| 2026-05-06 05:50 | 10.72030 | 106.81722 | 10813 ft | 320 kts | 258° |
| 2026-05-06 05:51 | 10.71255 | 106.79688 | 10795 ft | 308 kts | 237° |
| 2026-05-06 05:51 | 10.69943 | 106.77975 | 10446 ft | 309 kts | 227° |
| 2026-05-06 05:51 | 10.68458 | 106.76362 | 9931 ft | 317 kts | 225° |
| 2026-05-06 05:51 | 10.66936 | 106.74728 | 9670 ft | 314 kts | 225° |
| 2026-05-06 05:52 | 10.65451 | 106.73108 | 9466 ft | 310 kts | 226° |
| 2026-05-06 05:52 | 10.64010 | 106.71513 | 9256 ft | 306 kts | 226° |
| 2026-05-06 05:52 | 10.62580 | 106.69919 | 9039 ft | 303 kts | 226° |
| 2026-05-06 05:52 | 10.61159 | 106.68329 | 8804 ft | 301 kts | 226° |
| 2026-05-06 05:53 | 10.59757 | 106.66760 | 8544 ft | 300 kts | 226° |
| 2026-05-06 05:53 | 10.58341 | 106.65201 | 8162 ft | 304 kts | 224° |
| 2026-05-06 05:53 | 10.57306 | 106.64216 | 7759 ft | 311 kts | 219° |
| 2026-05-06 05:53 | 10.54961 | 106.62384 | 6948 ft | 324 kts | 215° |
| 2026-05-06 05:54 | 10.53205 | 106.60905 | 6343 ft | 334 kts | 227° |
| 2026-05-06 05:54 | 10.51891 | 106.58978 | 6126 ft | 328 kts | 239° |
| 2026-05-06 05:54 | 10.50802 | 106.56963 | 5959 ft | 322 kts | 242° |
| 2026-05-06 05:54 | 10.49756 | 106.54969 | 5769 ft | 316 kts | 242° |
| 2026-05-06 05:55 | 10.49070 | 106.53670 | 5642 ft | 312 kts | 241° |
| 2026-05-06 05:55 | 10.47712 | 106.51126 | 5403 ft | 305 kts | 241° |
| 2026-05-06 05:55 | 10.47123 | 106.49802 | 5264 ft | 302 kts | 253° |
| 2026-05-06 05:55 | 10.46940 | 106.47041 | 5095 ft | 291 kts | 277° |
| 2026-05-06 05:56 | 10.47182 | 106.45013 | 4982 ft | 284 kts | 279° |
| 2026-05-06 05:56 | 10.47443 | 106.43022 | 4867 ft | 285 kts | 278° |
| 2026-05-06 05:56 | 10.47690 | 106.41027 | 4748 ft | 285 kts | 278° |
| 2026-05-06 05:56 | 10.47920 | 106.39044 | 4624 ft | 284 kts | 278° |
| 2026-05-06 05:57 | 10.48207 | 106.37071 | 4497 ft | 282 kts | 288° |
| 2026-05-06 05:57 | 10.49036 | 106.35279 | 4376 ft | 278 kts | 308° |
| 2026-05-06 05:57 | 10.49855 | 106.34259 | 4305 ft | 277 kts | 313° |
| 2026-05-06 05:57 | 10.51596 | 106.32308 | 4149 ft | 276 kts | 314° |
| 2026-05-06 05:58 | 10.52897 | 106.30856 | 4032 ft | 276 kts | 314° |
| 2026-05-06 05:58 | 10.54195 | 106.29431 | 3909 ft | 275 kts | 320° |
| 2026-05-06 05:58 | 10.55263 | 106.28729 | 3808 ft | 270 kts | 343° |
| 2026-05-06 05:58 | 10.57072 | 106.28595 | 3691 ft | 256 kts | 16° |
| 2026-05-06 05:59 | 10.59026 | 106.29807 | 3535 ft | 244 kts | 52° |
| 2026-05-06 05:59 | 10.59923 | 106.31243 | 3423 ft | 238 kts | 60° |
| 2026-05-06 05:59 | 10.60748 | 106.32686 | 3301 ft | 234 kts | 60° |
| 2026-05-06 05:59 | 10.61571 | 106.34108 | 3182 ft | 229 kts | 59° |
| 2026-05-06 06:00 | 10.62382 | 106.35491 | 3064 ft | 225 kts | 59° |
| 2026-05-06 06:00 | 10.63181 | 106.36837 | 2946 ft | 221 kts | 59° |
| 2026-05-06 06:00 | 10.63718 | 106.37739 | 2864 ft | 219 kts | 59° |
| 2026-05-06 06:00 | 10.64757 | 106.39477 | 2704 ft | 214 kts | 58° |
| 2026-05-06 06:01 | 10.65538 | 106.40784 | 2585 ft | 215 kts | 58° |
| 2026-05-06 06:01 | 10.66293 | 106.42044 | 2470 ft | 215 kts | 58° |
| 2026-05-06 06:01 | 10.67053 | 106.43313 | 2355 ft | 216 kts | 58° |
| 2026-05-06 06:01 | 10.67875 | 106.44612 | 2398 ft | 221 kts | 49° |
| 2026-05-06 06:02 | 10.69054 | 106.45644 | 2967 ft | 223 kts | 32° |
| 2026-05-06 06:02 | 10.70385 | 106.46418 | 3533 ft | 223 kts | 30° |
| 2026-05-06 06:02 | 10.71769 | 106.47185 | 3718 ft | 220 kts | 29° |
| 2026-05-06 06:02 | 10.73092 | 106.47916 | 3679 ft | 213 kts | 29° |
| 2026-05-06 06:03 | 10.74377 | 106.48631 | 3531 ft | 208 kts | 29° |
| 2026-05-06 06:03 | 10.75578 | 106.49430 | 3309 ft | 205 kts | 47° |
| 2026-05-06 06:03 | 10.76329 | 106.50648 | 3105 ft | 201 kts | 66° |
| 2026-05-06 06:03 | 10.76790 | 106.51959 | 2925 ft | 196 kts | 71° |
| 2026-05-06 06:04 | 10.77074 | 106.52832 | 2792 ft | 193 kts | 70° |
| 2026-05-06 06:04 | 10.77674 | 106.54533 | 2252 ft | 197 kts | 68° |
| 2026-05-06 06:04 | 10.78179 | 106.55863 | 1657 ft | 206 kts | 67° |
| 2026-05-06 06:04 | 10.78695 | 106.57206 | 1301 ft | 196 kts | 68° |
| 2026-05-06 06:05 | 10.79010 | 106.58031 | 1189 ft | 185 kts | 68° |
| 2026-05-06 06:05 | 10.79571 | 106.59564 | 1045 ft | 163 kts | 68° |
| 2026-05-06 06:05 | 10.79836 | 106.60262 | 870 ft | 161 kts | 67° |
| 2026-05-06 06:05 | 10.80375 | 106.61656 | 577 ft | 154 kts | 68° |
| 2026-05-06 06:06 | 10.80621 | 106.62331 | 431 ft | 149 kts | 69° |
| 2026-05-06 06:06 | 10.81111 | 106.63609 | 177 ft | 143 kts | 67° |
| 2026-05-06 06:06 | 10.81460 | 106.64535 | 58 ft | 142 kts | 67° |
| 2026-05-06 06:06 | 10.81690 | 106.65143 | 50 ft | 130 kts | 68° |
| 2026-05-06 06:07 | 10.81965 | 106.65852 | 49 ft | 81 kts | 68° |
| 2026-05-06 06:07 | 10.82118 | 106.66279 | 49 ft | 26 kts | 69° |
| 2026-05-06 06:07 | 10.82150 | 106.66394 | 49 ft | 24 kts | 94° |
| 2026-05-06 06:07 | 10.82084 | 106.66575 | 49 ft | 13 kts | 147° |
| 2026-05-06 06:08 | 10.82025 | 106.66550 | 49 ft | 10 kts | 240° |
| 2026-05-06 06:08 | 10.81982 | 106.66476 | 49 ft | 10 kts | 229° |
| 2026-05-06 06:08 | 10.81911 | 106.66455 | 49 ft | 11 kts | 160° |
| 2026-05-06 06:08 | 10.81834 | 106.66490 | 49 ft | 12 kts | 159° |
| 2026-05-06 06:09 | 10.81806 | 106.66501 | 49 ft | 0 kts | 159° |